This is the latest recevied weather packets stored in our database for station/object SQ6ELQ-11. If no packets are shown the sender has not sent any weather packets the latest 10 day(s).
| Time | Temp. | Humidity | Pressure | Rain* | Wind** | Luminosity | Snow |
|---|---|---|---|---|---|---|---|
| 1778055116 | 15° C | 53% | 1006.9 hPa | 0 mm | - | - | - |
| 1778054013 | 15° C | 55% | 1006.9 hPa | 0 mm | - | - | - |
| 1778052912 | 14.44° C | 56% | 1006.8 hPa | 0 mm | - | - | - |
| 1778051806 | 13.89° C | 57% | 1006.6 hPa | 0 mm | - | - | - |
| 1778050731 | 13.89° C | 58% | 1006.7 hPa | 0 mm | - | - | - |
| 1778049538 | 13.33° C | 59% | 1006.5 hPa | 0 mm | - | - | - |
| 1778048457 | 13.33° C | 59% | 1006.6 hPa | 0 mm | - | - | - |
| 1778047286 | 13.33° C | 61% | 1006.3 hPa | 0 mm | - | - | - |
| 1778046227 | 12.78° C | 62% | 1006.1 hPa | 0 mm | - | - | - |
| 1778045251 | 12.78° C | 62% | 1006 hPa | 0 mm | - | - | - |
| 1778044213 | 12.78° C | 63% | 1005.7 hPa | 0 mm | - | - | - |
| 1778043216 | 12.78° C | 64% | 1005.8 hPa | 0 mm | - | - | - |
| 1778042120 | 12.78° C | 64% | 1005.6 hPa | 0 mm | - | - | - |
| 1778041086 | 12.78° C | 63% | 1005.4 hPa | 0 mm | - | - | - |
| 1778039952 | 12.78° C | 61% | 1005.3 hPa | 0 mm | - | - | - |
| 1778038863 | 12.78° C | 59% | 1005.5 hPa | 0 mm | - | - | - |
| 1778037746 | 12.78° C | 60% | 1005.4 hPa | 0 mm | - | - | - |
| 1778036706 | 12.22° C | 61% | 1005.5 hPa | 0 mm | - | - | - |
| 1778035542 | 11.67° C | 64% | 1005.4 hPa | 0 mm | - | - | - |
| 1778034542 | 11.67° C | 64% | 1005.4 hPa | 0 mm | - | - | - |
| 1778033522 | 12.22° C | 65% | 1005.6 hPa | 0 mm | - | - | - |
| 1778032491 | 12.22° C | 64% | 1006.3 hPa | 0 mm | - | - | - |
| 1778031341 | 12.22° C | 63% | 1006.3 hPa | 0 mm | - | - | - |
| 1778030311 | 11.11° C | 69% | 1006.3 hPa | 0 mm | - | - | - |
| 1778029226 | 11.11° C | 66% | 1006.2 hPa | 0 mm | - | - | - |
* Rain latest hour (hover to see other rain measurements)
** Current wind speed in m/s (hover to see current wind gust speed)